Time;durP1;ratioP1;P1;durP2;ratioP2;P2;SDS_P1;SDS_P2;PMS_P1;PMS_P2;Temp;Humidity;BMP_temperature;BMP_pressure;BME280_temperature;BME280_humidity;BME280_pressure;Samples;Min_cycle;Max_cycle;Signal;HPM_P1;HPM_P2
2021/08/20 00:01:32;;;;;;;1.90;1.45;;;15.90;89.80;;;;;;4994692;28;20085;-78
2021/08/20 00:03:58;;;;;;;1.92;1.50;;;15.90;89.70;;;;;;4993098;28;20101;-78
2021/08/20 00:06:24;;;;;;;1.92;1.40;;;15.90;89.70;;;;;;4992394;28;20042;-79
2021/08/20 00:08:50;;;;;;;1.88;1.35;;;15.90;89.70;;;;;;5007928;28;20454;-79
2021/08/20 00:11:15;;;;;;;1.65;1.20;;;15.80;90.10;;;;;;4991119;28;20041;-78
2021/08/20 00:13:41;;;;;;;2.25;1.45;;;15.80;89.70;;;;;;4992483;28;20552;-79
2021/08/20 00:16:07;;;;;;;1.20;1.10;;;15.80;89.70;;;;;;4991824;28;20038;-78
2021/08/20 00:18:34;;;;;;;1.33;1.10;;;15.80;89.80;;;;;;4994226;28;20044;-79
2021/08/20 00:20:59;;;;;;;1.73;1.30;;;15.70;89.80;;;;;;4992508;28;20051;-79
2021/08/20 00:23:25;;;;;;;1.48;1.08;;;15.70;89.80;;;;;;5008221;28;20039;-79
2021/08/20 00:25:51;;;;;;;1.85;1.27;;;15.70;90.00;;;;;;4991524;28;20129;-78
2021/08/20 00:28:18;;;;;;;1.15;0.98;;;15.70;90.00;;;;;;4994565;28;20046;-78
2021/08/20 00:30:47;;;;;;;1.52;1.05;;;15.70;90.00;;;;;;4992630;28;20030;-78
2021/08/20 00:33:12;;;;;;;1.77;0.90;;;15.70;90.00;;;;;;4994010;28;20510;-78
2021/08/20 00:35:38;;;;;;;1.10;1.00;;;15.60;89.90;;;;;;4991748;28;20121;-79
2021/08/20 00:38:04;;;;;;;1.80;1.17;;;15.60;90.00;;;;;;4990806;28;20144;-78
2021/08/20 00:40:30;;;;;;;1.40;1.17;;;15.60;90.00;;;;;;4993887;28;20117;-79
2021/08/20 00:42:56;;;;;;;1.35;1.20;;;15.50;90.00;;;;;;4992415;28;20038;-78
2021/08/20 00:45:21;;;;;;;2.30;1.27;;;15.50;90.00;;;;;;4992452;28;20425;-79
2021/08/20 00:47:48;;;;;;;1.80;1.30;;;15.50;90.00;;;;;;5008522;28;20057;-78
2021/08/20 00:50:14;;;;;;;1.73;1.23;;;15.50;90.00;;;;;;4992391;28;20035;-78
2021/08/20 00:52:39;;;;;;;1.23;1.10;;;15.50;90.00;;;;;;5009108;28;20034;-80
2021/08/20 00:55:08;;;;;;;1.80;1.20;;;15.40;90.00;;;;;;4993758;28;20080;-78
2021/08/20 00:57:34;;;;;;;2.33;1.13;;;15.40;90.00;;;;;;4993570;28;20482;-79
2021/08/20 01:00:00;;;;;;;1.27;1.10;;;15.40;90.00;;;;;;4991236;28;20034;-79
2021/08/20 01:02:26;;;;;;;1.55;1.13;;;15.40;90.00;;;;;;5006882;28;20073;-79
2021/08/20 01:04:52;;;;;;;1.52;1.30;;;15.40;90.00;;;;;;5008404;28;20043;-79
2021/08/20 01:07:19;;;;;;;1.20;1.10;;;15.30;90.10;;;;;;4993434;28;20049;-79
2021/08/20 01:09:47;;;;;;;1.35;0.90;;;15.30;90.10;;;;;;4990785;28;20077;-78
2021/08/20 01:12:13;;;;;;;1.20;1.00;;;15.30;90.10;;;;;;4993432;28;20394;-79
2021/08/20 01:14:39;;;;;;;0.80;0.80;;;15.40;90.10;;;;;;5008480;28;20027;-79
2021/08/20 01:17:08;;;;;;;1.33;1.10;;;15.30;90.10;;;;;;4991218;28;20044;-78
2021/08/20 01:19:35;;;;;;;2.05;1.25;;;15.30;90.10;;;;;;4991157;28;20038;-78
2021/08/20 01:22:02;;;;;;;1.25;1.00;;;15.30;90.10;;;;;;4992093;28;20082;-79
2021/08/20 01:24:29;;;;;;;0.95;0.82;;;15.20;90.10;;;;;;4991937;28;20105;-79
2021/08/20 01:26:55;;;;;;;1.52;1.00;;;15.20;90.10;;;;;;4993259;28;20030;-78
2021/08/20 01:29:23;;;;;;;1.75;1.02;;;15.20;90.10;;;;;;4993081;28;20442;-79
2021/08/20 01:31:49;;;;;;;1.00;0.90;;;15.20;90.10;;;;;;4989669;28;20043;-79
2021/08/20 01:34:16;;;;;;;2.75;1.25;;;15.20;90.10;;;;;;5006897;28;20039;-79
2021/08/20 01:36:42;;;;;;;1.25;0.80;;;15.10;90.10;;;;;;4987865;28;20033;-79
2021/08/20 01:39:08;;;;;;;1.17;0.90;;;15.10;90.10;;;;;;4992984;28;20043;-78
2021/08/20 01:41:34;;;;;;;1.58;1.00;;;15.10;90.10;;;;;;4990354;28;20406;-78
2021/08/20 01:44:01;;;;;;;1.45;1.15;;;15.10;90.10;;;;;;4993438;28;20113;-79
2021/08/20 01:46:28;;;;;;;2.60;1.10;;;15.10;90.10;;;;;;4991378;28;20123;-79
2021/08/20 01:48:56;;;;;;;1.10;1.00;;;15.00;90.10;;;;;;4992643;28;20047;-79
2021/08/20 01:51:24;;;;;;;1.05;0.95;;;15.00;90.10;;;;;;4990605;28;20475;-79
2021/08/20 01:53:51;;;;;;;1.60;1.20;;;15.00;90.10;;;;;;4990247;28;20117;-79
2021/08/20 01:56:20;;;;;;;0.75;0.75;;;15.00;90.10;;;;;;4989910;28;20026;-79
2021/08/20 01:58:46;;;;;;;1.63;1.10;;;15.00;90.10;;;;;;4989498;28;20043;-79
2021/08/20 02:01:12;;;;;;;1.48;1.05;;;15.00;90.40;;;;;;4990981;28;20034;-79
2021/08/20 02:03:38;;;;;;;1.77;1.20;;;14.90;90.10;;;;;;4991029;28;20048;-79
2021/08/20 02:06:04;;;;;;;1.80;1.13;;;14.90;90.20;;;;;;4992585;28;20113;-79
2021/08/20 02:08:30;;;;;;;2.10;1.17;;;14.90;90.50;;;;;;4993010;28;20046;-79
2021/08/20 02:10:56;;;;;;;2.47;1.40;;;14.90;90.20;;;;;;4990713;28;20037;-79
2021/08/20 02:13:22;;;;;;;2.40;1.42;;;14.90;90.20;;;;;;4989946;28;20105;-80
2021/08/20 02:15:49;;;;;;;2.97;1.40;;;14.90;90.20;;;;;;4989995;28;20073;-80
2021/08/20 02:18:16;;;;;;;2.03;1.52;;;15.00;90.10;;;;;;4991160;28;20037;-78
2021/08/20 02:20:42;;;;;;;1.52;1.30;;;15.00;90.00;;;;;;4990728;28;20049;-79
2021/08/20 02:23:10;;;;;;;3.00;1.70;;;15.10;90.00;;;;;;4992716;28;20042;-78
2021/08/20 02:25:35;;;;;;;1.77;1.38;;;15.10;89.90;;;;;;5010031;28;20494;-78
2021/08/20 02:28:02;;;;;;;2.38;1.63;;;15.10;89.80;;;;;;4995742;28;20053;-79
2021/08/20 02:30:28;;;;;;;2.97;1.80;;;15.20;89.70;;;;;;4993793;28;20046;-78
2021/08/20 02:32:54;;;;;;;2.35;1.70;;;15.20;89.60;;;;;;4993645;28;20132;-79
2021/08/20 02:35:21;;;;;;;2.63;1.70;;;15.20;89.50;;;;;;4989693;28;20070;-78
2021/08/20 02:37:46;;;;;;;2.58;1.50;;;15.30;89.40;;;;;;4992923;28;20041;-79
2021/08/20 02:40:12;;;;;;;2.88;1.80;;;15.30;89.40;;;;;;4990685;28;20113;-79
2021/08/20 02:42:38;;;;;;;2.55;1.48;;;15.30;89.30;;;;;;4990744;28;20034;-79
2021/08/20 02:45:04;;;;;;;2.80;1.90;;;15.40;89.30;;;;;;4945026;28;20043;-79
2021/08/20 02:47:30;;;;;;;3.35;1.80;;;15.30;89.30;;;;;;5010063;28;20042;-79
2021/08/20 02:49:56;;;;;;;3.42;2.10;;;15.30;89.30;;;;;;4993368;28;20037;-79
2021/08/20 02:52:22;;;;;;;2.70;1.77;;;15.30;89.20;;;;;;4995460;28;20038;-78
2021/08/20 02:54:48;;;;;;;2.42;1.70;;;15.40;89.30;;;;;;4994249;28;20113;-79
2021/08/20 02:57:14;;;;;;;2.85;1.85;;;15.40;89.20;;;;;;4995293;28;20117;-79
2021/08/20 02:59:40;;;;;;;2.20;1.55;;;15.40;89.20;;;;;;4996018;28;20466;-78
2021/08/20 03:02:06;;;;;;;3.15;2.05;;;15.40;89.20;;;;;;4992471;28;20034;-79
2021/08/20 03:04:31;;;;;;;2.58;1.70;;;15.40;89.20;;;;;;4995767;28;20501;-78
2021/08/20 03:06:58;;;;;;;2.90;1.90;;;15.40;89.20;;;;;;5009747;28;20034;-78
2021/08/20 03:09:24;;;;;;;2.53;1.73;;;15.40;89.20;;;;;;4994982;28;20050;-78
2021/08/20 03:11:49;;;;;;;3.45;1.98;;;15.40;89.20;;;;;;5010034;28;20050;-79
2021/08/20 03:14:16;;;;;;;3.47;1.95;;;15.40;89.20;;;;;;4993046;28;20057;-79
2021/08/20 03:16:42;;;;;;;3.05;2.00;;;15.40;89.20;;;;;;5008982;28;20035;-79
2021/08/20 03:19:09;;;;;;;4.15;2.28;;;15.40;89.20;;;;;;5008266;28;20039;-79
2021/08/20 03:21:35;;;;;;;4.68;2.55;;;15.50;89.30;;;;;;5008906;28;20046;-78
2021/08/20 03:24:01;;;;;;;4.70;2.72;;;15.50;89.30;;;;;;4994778;28;20034;-79
2021/08/20 03:26:27;;;;;;;4.03;2.60;;;15.50;89.30;;;;;;4995379;28;20053;-79
2021/08/20 03:28:53;;;;;;;4.30;2.50;;;15.40;89.20;;;;;;4992154;28;20038;-79
2021/08/20 03:31:20;;;;;;;5.25;2.60;;;15.50;89.20;;;;;;4975557;28;20163;-78
2021/08/20 03:33:46;;;;;;;4.03;2.42;;;15.50;89.20;;;;;;4994922;28;20041;-79
2021/08/20 03:36:13;;;;;;;3.47;2.20;;;15.50;89.20;;;;;;4992745;28;20042;-79
2021/08/20 03:38:39;;;;;;;4.22;2.40;;;15.50;89.20;;;;;;4977750;28;20074;-78
2021/08/20 03:41:04;;;;;;;4.43;2.28;;;15.50;89.20;;;;;;5009404;28;20077;-78
2021/08/20 03:43:30;;;;;;;2.70;1.80;;;15.50;89.20;;;;;;4992498;28;20089;-78
2021/08/20 03:45:56;;;;;;;3.05;2.00;;;15.60;89.30;;;;;;4992659;28;20550;-78
2021/08/20 03:48:22;;;;;;;4.32;2.17;;;15.60;89.30;;;;;;4993158;28;20085;-79
2021/08/20 03:50:48;;;;;;;3.53;2.33;;;15.60;89.30;;;;;;5009309;28;20042;-79
2021/08/20 03:53:13;;;;;;;3.00;2.10;;;15.60;89.30;;;;;;4989596;28;20035;-78
2021/08/20 03:55:39;;;;;;;4.28;2.40;;;15.50;89.30;;;;;;4992502;28;20023;-78
2021/08/20 03:58:06;;;;;;;4.03;2.25;;;15.60;89.30;;;;;;4992572;28;20050;-78
2021/08/20 04:00:34;;;;;;;3.80;2.40;;;15.60;89.40;;;;;;4994369;28;20061;-78
2021/08/20 04:02:59;;;;;;;4.38;2.40;;;15.50;89.30;;;;;;4992057;28;20053;-78
2021/08/20 04:05:25;;;;;;;4.38;2.40;;;15.60;89.40;;;;;;5009419;28;20403;-78
2021/08/20 04:07:51;;;;;;;4.05;2.28;;;15.60;89.40;;;;;;4994800;28;20050;-78
2021/08/20 04:10:17;;;;;;;3.92;2.47;;;15.50;89.40;;;;;;4992075;28;20030;-78
2021/08/20 04:12:42;;;;;;;4.65;2.22;;;15.60;89.50;;;;;;5007612;28;20093;-78
2021/08/20 04:15:09;;;;;;;5.72;2.95;;;15.60;89.50;;;;;;4994266;28;20033;-78
2021/08/20 04:17:34;;;;;;;4.88;2.78;;;15.50;89.50;;;;;;5008807;28;20097;-78
2021/08/20 04:20:00;;;;;;;3.60;2.25;;;15.50;89.50;;;;;;4991857;28;20038;-78
2021/08/20 04:22:26;;;;;;;3.88;2.35;;;15.60;89.70;;;;;;4994734;28;20038;-78
2021/08/20 04:24:53;;;;;;;4.00;2.42;;;15.50;89.70;;;;;;4994620;28;20141;-78
2021/08/20 04:27:19;;;;;;;3.97;2.50;;;15.50;89.70;;;;;;4994009;28;20371;-78
2021/08/20 04:29:44;;;;;;;3.28;2.13;;;15.50;89.70;;;;;;4991504;28;20042;-78
2021/08/20 04:32:10;;;;;;;4.63;2.50;;;15.50;89.80;;;;;;4994007;28;20031;-78
2021/08/20 04:34:36;;;;;;;3.78;2.20;;;15.50;89.80;;;;;;4992347;28;20053;-78
2021/08/20 04:37:02;;;;;;;3.42;2.17;;;15.50;89.80;;;;;;4991656;28;20034;-78
2021/08/20 04:39:28;;;;;;;2.83;1.83;;;15.60;89.80;;;;;;5007966;28;20368;-78
2021/08/20 04:41:53;;;;;;;4.07;2.10;;;15.60;89.90;;;;;;5008654;28;20042;-77
2021/08/20 04:44:19;;;;;;;3.65;2.10;;;15.60;89.90;;;;;;4991957;28;20045;-78
2021/08/20 04:46:44;;;;;;;3.33;1.92;;;15.60;89.90;;;;;;4991059;28;20074;-78
2021/08/20 04:49:10;;;;;;;3.28;2.00;;;15.60;89.90;;;;;;4993679;28;20129;-78
2021/08/20 04:51:36;;;;;;;2.92;1.75;;;15.60;89.90;;;;;;4994191;28;20081;-79
2021/08/20 04:54:02;;;;;;;2.92;1.50;;;15.60;89.90;;;;;;4991112;28;20053;-78
2021/08/20 04:56:28;;;;;;;2.67;1.85;;;15.60;89.90;;;;;;4990711;28;20043;-78
2021/08/20 04:58:54;;;;;;;2.15;1.48;;;15.70;89.90;;;;;;4991893;28;20042;-78
2021/08/20 05:01:20;;;;;;;2.25;1.50;;;15.70;89.90;;;;;;4991621;28;20402;-78
2021/08/20 05:03:47;;;;;;;2.80;1.58;;;15.70;89.90;;;;;;5007019;28;20041;-78
2021/08/20 05:06:14;;;;;;;3.40;2.10;;;15.70;89.90;;;;;;5006324;28;20038;-78
2021/08/20 05:08:40;;;;;;;3.72;2.25;;;15.70;89.90;;;;;;5008533;28;20101;-78
2021/08/20 05:11:06;;;;;;;2.92;1.80;;;15.70;89.90;;;;;;4993329;28;20031;-78
2021/08/20 05:13:32;;;;;;;3.28;2.10;;;15.70;89.90;;;;;;4993377;28;20038;-78
2021/08/20 05:15:58;;;;;;;3.40;1.95;;;15.90;90.00;;;;;;4992371;28;20035;-78
2021/08/20 05:18:24;;;;;;;3.40;1.95;;;15.80;89.90;;;;;;4991400;28;20076;-78
2021/08/20 05:21:05;;;;;;;3.15;1.70;;;15.80;89.80;;;;;;4991055;28;20062;-78
2021/08/20 05:23:30;;;;;;;4.22;1.90;;;15.80;89.80;;;;;;4990065;28;20077;-78
2021/08/20 05:25:56;;;;;;;3.70;2.30;;;15.80;89.80;;;;;;5007677;28;20061;-78
2021/08/20 05:28:22;;;;;;;3.60;2.08;;;15.80;89.90;;;;;;5007237;28;20042;-78
2021/08/20 05:30:48;;;;;;;4.15;2.33;;;15.80;89.80;;;;;;4993364;28;20134;-78
2021/08/20 05:33:14;;;;;;;3.10;1.98;;;15.90;89.90;;;;;;4991753;28;20041;-78
2021/08/20 05:35:40;;;;;;;3.90;2.28;;;15.90;89.90;;;;;;5007338;28;20478;-78
2021/08/20 05:38:06;;;;;;;4.70;2.25;;;15.90;89.90;;;;;;4990557;28;20117;-78
2021/08/20 05:40:32;;;;;;;3.65;1.85;;;15.90;90.00;;;;;;4993570;28;20043;-78
2021/08/20 05:42:59;;;;;;;2.03;1.52;;;15.90;90.00;;;;;;4991264;28;20517;-78
2021/08/20 05:45:25;;;;;;;2.75;1.63;;;15.90;90.00;;;;;;4990893;28;20097;-78
2021/08/20 05:47:51;;;;;;;4.10;2.08;;;16.00;90.00;;;;;;4990433;28;20494;-78
2021/08/20 05:50:16;;;;;;;3.38;2.15;;;16.00;90.00;;;;;;4991537;28;20046;-78
2021/08/20 05:52:42;;;;;;;3.40;1.85;;;16.00;90.00;;;;;;4993238;28;20130;-78
2021/08/20 05:55:10;;;;;;;3.85;2.20;;;16.00;89.90;;;;;;4990417;28;20031;-78
2021/08/20 05:57:36;;;;;;;5.05;2.75;;;16.10;89.90;;;;;;4989956;28;20034;-79
2021/08/20 06:00:04;;;;;;;3.80;2.10;;;16.10;89.90;;;;;;4991350;28;20974;-78
2021/08/20 06:02:30;;;;;;;4.18;2.30;;;16.10;89.90;;;;;;5007363;28;20398;-78
2021/08/20 06:04:57;;;;;;;4.65;2.60;;;16.20;89.90;;;;;;4992622;28;20038;-78
2021/08/20 06:07:23;;;;;;;3.92;2.40;;;16.20;89.90;;;;;;5006274;28;20066;-78
2021/08/20 06:09:49;;;;;;;3.83;2.13;;;16.20;89.80;;;;;;4992539;28;20042;-78
2021/08/20 06:12:15;;;;;;;3.90;2.30;;;16.20;89.80;;;;;;4990807;28;20035;-79
2021/08/20 06:14:41;;;;;;;4.63;2.53;;;16.20;89.70;;;;;;4990040;28;20474;-79
2021/08/20 06:17:06;;;;;;;3.50;1.77;;;16.30;89.70;;;;;;4989071;28;20126;-78
2021/08/20 06:19:32;;;;;;;3.67;2.10;;;16.30;89.80;;;;;;4994699;28;20039;-78
2021/08/20 06:21:58;;;;;;;2.80;1.63;;;16.30;89.80;;;;;;4997367;28;20069;-78
2021/08/20 06:24:24;;;;;;;3.72;2.20;;;16.30;89.80;;;;;;5006673;28;20092;-78
2021/08/20 06:26:50;;;;;;;3.80;2.30;;;16.40;89.80;;;;;;4993073;28;20509;-79
2021/08/20 06:29:19;;;;;;;3.55;1.98;;;16.40;89.70;;;;;;4992994;28;20611;-78
2021/08/20 06:31:47;;;;;;;4.60;2.10;;;16.50;89.70;;;;;;4992546;28;20049;-78
2021/08/20 06:34:13;;;;;;;3.50;2.13;;;16.60;89.70;;;;;;4990837;28;20066;-78
2021/08/20 06:36:39;;;;;;;2.55;1.70;;;16.70;89.50;;;;;;4993023;28;20069;-77
2021/08/20 06:39:04;;;;;;;3.70;2.10;;;16.70;89.20;;;;;;5007625;28;20129;-77
2021/08/20 06:41:30;;;;;;;3.42;2.08;;;16.80;89.80;;;;;;4992516;28;20038;-77
2021/08/20 06:43:56;;;;;;;3.60;1.98;;;16.90;89.00;;;;;;4992818;28;20060;-77
2021/08/20 06:46:21;;;;;;;3.55;2.22;;;16.90;89.00;;;;;;4992213;28;20053;-78
2021/08/20 06:48:47;;;;;;;3.85;2.28;;;17.00;88.90;;;;;;4992603;28;20134;-77
2021/08/20 06:51:14;;;;;;;5.45;2.30;;;17.00;88.80;;;;;;5005863;28;20038;-78
2021/08/20 06:53:40;;;;;;;3.53;2.28;;;17.00;88.90;;;;;;4989089;28;20038;-77
2021/08/20 06:56:06;;;;;;;3.63;2.17;;;17.10;88.90;;;;;;4990362;28;20041;-78
2021/08/20 06:58:32;;;;;;;4.57;2.20;;;17.20;88.80;;;;;;4992169;28;20038;-78
2021/08/20 07:00:58;;;;;;;4.10;2.17;;;17.20;88.60;;;;;;4992263;28;20045;-78
2021/08/20 07:03:24;;;;;;;3.28;2.10;;;17.20;88.60;;;;;;4991111;28;20042;-78
2021/08/20 07:05:49;;;;;;;3.22;1.80;;;17.30;88.70;;;;;;4990365;28;20046;-77
2021/08/20 07:08:15;;;;;;;3.58;2.05;;;17.30;88.80;;;;;;4989394;28;20030;-77
2021/08/20 07:10:41;;;;;;;1.77;1.30;;;17.30;88.80;;;;;;4988801;28;20129;-77
2021/08/20 07:13:08;;;;;;;3.67;2.15;;;17.50;88.80;;;;;;5006739;28;20039;-77
2021/08/20 07:15:33;;;;;;;3.08;1.80;;;17.50;88.70;;;;;;4989980;28;20102;-78
2021/08/20 07:17:59;;;;;;;3.20;2.05;;;17.60;88.50;;;;;;4989050;28;20088;-78
2021/08/20 07:20:25;;;;;;;2.92;2.08;;;17.60;88.50;;;;;;4990387;28;20137;-78
2021/08/20 07:22:51;;;;;;;3.28;1.95;;;17.60;88.50;;;;;;4990378;28;20478;-78
2021/08/20 07:25:17;;;;;;;3.50;2.03;;;17.70;88.50;;;;;;5005722;28;20042;-77
2021/08/20 07:27:43;;;;;;;2.50;1.60;;;17.70;88.40;;;;;;4988508;28;20047;-78
2021/08/20 07:30:10;;;;;;;2.75;1.70;;;17.80;88.30;;;;;;4994814;28;20125;-78
2021/08/20 07:32:36;;;;;;;2.45;1.67;;;17.90;88.30;;;;;;4992813;28;20042;-77
2021/08/20 07:35:02;;;;;;;2.50;1.67;;;17.90;88.20;;;;;;4992586;28;20039;-77
2021/08/20 07:37:28;;;;;;;2.65;1.77;;;18.00;88.10;;;;;;5008496;28;20081;-77
2021/08/20 07:39:54;;;;;;;2.28;1.63;;;18.10;88.10;;;;;;4995088;28;20038;-77
2021/08/20 07:42:20;;;;;;;3.42;2.00;;;18.10;88.10;;;;;;5008783;28;20040;-77
2021/08/20 07:44:47;;;;;;;3.08;1.92;;;18.10;88.10;;;;;;4995285;28;20042;-77
2021/08/20 07:47:13;;;;;;;3.15;1.90;;;18.20;88.20;;;;;;4994664;28;20074;-77
2021/08/20 07:49:39;;;;;;;2.90;1.90;;;18.20;88.10;;;;;;4994532;28;20121;-77
2021/08/20 07:52:05;;;;;;;2.33;1.77;;;18.20;88.10;;;;;;4994930;28;20030;-77
2021/08/20 07:54:31;;;;;;;2.88;1.83;;;18.30;88.10;;;;;;4995046;28;20483;-77
2021/08/20 07:56:57;;;;;;;3.00;2.00;;;18.30;88.00;;;;;;4993319;28;20096;-77
2021/08/20 07:59:23;;;;;;;2.88;1.95;;;18.40;87.90;;;;;;4994543;28;20132;-77
2021/08/20 08:01:48;;;;;;;3.22;2.20;;;18.40;88.00;;;;;;4994511;28;20038;-78
2021/08/20 08:04:14;;;;;;;3.65;2.10;;;18.40;88.00;;;;;;4993277;28;20057;-77
2021/08/20 08:06:40;;;;;;;3.03;1.80;;;18.40;87.90;;;;;;4992507;28;20482;-78
2021/08/20 08:09:07;;;;;;;2.50;1.58;;;18.50;88.00;;;;;;4991985;28;20070;-76
2021/08/20 08:11:33;;;;;;;3.20;1.85;;;18.60;88.00;;;;;;5008070;28;20121;-77
2021/08/20 08:14:05;;;;;;;3.50;2.05;;;18.70;87.80;;;;;;4993411;28;20029;-77
2021/08/20 08:16:36;;;;;;;2.22;1.70;;;18.70;88.30;;;;;;4989872;28;20380;-77
2021/08/20 08:19:03;;;;;;;2.42;1.67;;;18.80;87.70;;;;;;5007806;28;20054;-77
2021/08/20 08:21:29;;;;;;;2.22;1.73;;;18.80;87.60;;;;;;4994289;28;20517;-77
2021/08/20 08:23:56;;;;;;;2.38;1.70;;;18.90;87.60;;;;;;4992088;28;20046;-77
2021/08/20 08:26:23;;;;;;;1.85;1.50;;;19.00;87.60;;;;;;4994864;28;20039;-77
2021/08/20 08:28:50;;;;;;;2.15;1.50;;;19.10;87.30;;;;;;4992851;28;20512;-77
2021/08/20 08:31:16;;;;;;;3.25;2.17;;;19.20;87.00;;;;;;4994087;28;20038;-77
2021/08/20 08:33:41;;;;;;;2.13;1.58;;;19.30;87.00;;;;;;4993860;28;20038;-77
2021/08/20 08:36:07;;;;;;;3.53;2.13;;;19.30;86.90;;;;;;4994158;28;20383;-77
2021/08/20 08:38:33;;;;;;;2.92;1.98;;;19.30;87.00;;;;;;4993022;28;20495;-77
2021/08/20 08:40:58;;;;;;;3.47;2.28;;;19.30;87.10;;;;;;4991602;28;20054;-78
2021/08/20 08:43:24;;;;;;;3.45;2.47;;;19.40;87.10;;;;;;4991496;28;20117;-78
2021/08/20 08:45:50;;;;;;;4.35;2.42;;;19.40;87.00;;;;;;4991032;28;20041;-78
2021/08/20 08:48:16;;;;;;;4.03;2.63;;;19.50;87.00;;;;;;4991962;28;20050;-78
2021/08/20 08:50:45;;;;;;;3.42;2.50;;;19.60;86.80;;;;;;4991590;28;20041;-78
2021/08/20 08:53:11;;;;;;;3.03;2.30;;;19.70;86.50;;;;;;4994382;28;20039;-79
2021/08/20 08:55:36;;;;;;;2.80;2.17;;;19.60;86.50;;;;;;5007596;28;20073;-77
2021/08/20 08:58:07;;;;;;;3.35;2.20;;;19.70;86.70;;;;;;4993874;28;20093;-78
2021/08/20 09:00:35;;;;;;;3.22;2.30;;;19.80;86.50;;;;;;4993596;28;20038;-78
2021/08/20 09:03:01;;;;;;;3.75;2.55;;;19.90;86.30;;;;;;4993566;28;20054;-78
2021/08/20 09:05:42;;;;;;;4.50;3.10;;;20.00;86.10;;;;;;4991022;28;20039;-78
2021/08/20 09:08:12;;;;;;;2.95;2.08;;;20.10;85.70;;;;;;4990548;28;20125;-77
2021/08/20 09:10:48;;;;;;;3.35;2.10;;;20.20;85.50;;;;;;4992634;28;20037;-77
2021/08/20 09:13:14;;;;;;;4.18;2.40;;;20.30;85.50;;;;;;4991252;28;20042;-78
2021/08/20 09:15:40;;;;;;;2.72;1.88;;;20.30;85.50;;;;;;4990655;28;20042;-77
2021/08/20 09:18:06;;;;;;;2.45;1.83;;;20.20;85.60;;;;;;4992039;28;20050;-77
2021/08/20 09:20:35;;;;;;;2.80;2.08;;;20.40;85.60;;;;;;4993436;28;20026;-78
2021/08/20 09:23:15;;;;;;;3.42;2.25;;;20.40;85.60;;;;;;4991125;28;20502;-78
2021/08/20 09:25:44;;;;;;;3.80;2.38;;;20.40;85.50;;;;;;4990529;28;20125;-78
2021/08/20 09:28:16;;;;;;;3.15;1.92;;;20.40;85.60;;;;;;4993567;28;20042;-77
2021/08/20 09:30:57;;;;;;;3.13;2.10;;;20.40;85.70;;;;;;4993432;28;20113;-78
2021/08/20 09:33:50;;;;;;;2.72;1.95;;;20.40;85.70;;;;;;4992018;28;20030;-78
2021/08/20 09:36:19;;;;;;;3.47;2.30;;;20.40;85.50;;;;;;4993108;28;20030;-78
2021/08/20 09:38:52;;;;;;;2.63;2.00;;;20.50;85.70;;;;;;4990693;28;20034;-78
2021/08/20 09:41:28;;;;;;;2.53;1.95;;;20.70;85.50;;;;;;4993045;28;20043;-77
2021/08/20 09:43:56;;;;;;;3.83;2.20;;;20.80;85.10;;;;;;4992974;28;20038;-77
2021/08/20 09:46:23;;;;;;;3.47;2.20;;;20.90;84.70;;;;;;4993105;28;20488;-77
2021/08/20 09:48:53;;;;;;;3.72;2.20;;;20.90;84.60;;;;;;4992899;28;20049;-77
2021/08/20 09:51:38;;;;;;;4.07;2.47;;;20.90;84.40;;;;;;4990946;28;20052;-77
2021/08/20 09:54:07;;;;;;;3.22;2.10;;;21.00;84.60;;;;;;5006921;28;20084;-77
2021/08/20 09:56:34;;;;;;;3.38;2.38;;;21.00;84.60;;;;;;4993041;28;20372;-77
2021/08/20 09:59:02;;;;;;;3.33;2.17;;;21.00;84.50;;;;;;4992988;28;20069;-77
2021/08/20 10:01:30;;;;;;;3.72;2.28;;;21.10;84.50;;;;;;4992765;28;20046;-76
2021/08/20 10:03:59;;;;;;;2.95;1.95;;;21.20;84.40;;;;;;4992688;28;20110;-77
2021/08/20 10:06:32;;;;;;;2.58;1.83;;;21.40;84.30;;;;;;4992687;28;20046;-77
2021/08/20 10:09:02;;;;;;;2.75;1.77;;;21.40;83.90;;;;;;4992476;28;20494;-78
2021/08/20 10:11:29;;;;;;;3.15;2.13;;;21.50;83.80;;;;;;4992617;28;20038;-77
2021/08/20 10:14:00;;;;;;;2.13;1.67;;;21.50;83.90;;;;;;4993029;28;20027;-77
2021/08/20 10:16:27;;;;;;;2.38;1.80;;;21.60;83.80;;;;;;5007407;28;20130;-77
2021/08/20 10:18:53;;;;;;;2.53;1.65;;;21.70;83.60;;;;;;4992984;28;20512;-77
2021/08/20 10:21:19;;;;;;;3.25;1.83;;;21.80;83.40;;;;;;4992956;28;20085;-77
2021/08/20 10:23:46;;;;;;;3.13;2.03;;;21.70;83.40;;;;;;4992454;28;20047;-78
2021/08/20 10:26:12;;;;;;;2.90;1.85;;;21.70;83.60;;;;;;4992754;28;20039;-78
2021/08/20 10:28:39;;;;;;;2.63;1.77;;;21.70;83.60;;;;;;4992501;28;20457;-77
2021/08/20 10:31:05;;;;;;;2.10;1.60;;;21.70;83.60;;;;;;4992620;28;20062;-78
2021/08/20 10:33:33;;;;;;;2.10;1.60;;;21.70;83.50;;;;;;4992326;28;20030;-78
2021/08/20 10:36:01;;;;;;;3.05;2.20;;;21.60;83.70;;;;;;4992570;28;20888;-78
2021/08/20 10:38:43;;;;;;;2.75;1.73;;;21.60;83.70;;;;;;4990696;28;20039;-78
2021/08/20 10:41:12;;;;;;;1.60;1.40;;;21.60;83.60;;;;;;4992172;28;20035;-77
2021/08/20 10:44:00;;;;;;;2.93;1.90;;;21.60;83.60;;;;;;4990198;28;20062;-78
2021/08/20 10:47:01;;;;;;;2.20;1.70;;;21.70;83.10;;;;;;4992227;28;20039;-78
2021/08/20 10:49:27;;;;;;;2.60;1.55;;;21.60;83.00;;;;;;4991830;28;20483;-76
2021/08/20 10:51:59;;;;;;;2.58;1.40;;;21.60;83.00;;;;;;4992219;28;20065;-77
2021/08/20 10:55:04;;;;;;;2.05;1.20;;;21.60;83.00;;;;;;4990071;28;20505;-78
2021/08/20 10:57:52;;;;;;;1.80;1.40;;;21.60;82.80;;;;;;4990922;28;21110;-78
2021/08/20 11:00:29;;;;;;;1.42;1.02;;;21.60;82.60;;;;;;4991022;28;20141;-78
2021/08/20 11:02:58;;;;;;;1.77;1.25;;;21.60;82.60;;;;;;4989752;28;20042;-77
2021/08/20 11:05:42;;;;;;;1.42;1.15;;;21.70;82.40;;;;;;4996031;28;20034;-78
2021/08/20 11:08:32;;;;;;;1.40;1.00;;;21.70;82.20;;;;;;4995835;28;20096;-78
2021/08/20 11:10:59;;;;;;;1.67;1.00;;;21.70;82.10;;;;;;4995482;28;20030;-78
2021/08/20 11:13:26;;;;;;;1.48;1.05;;;21.90;81.80;;;;;;4992771;28;20555;-77
2021/08/20 11:15:54;;;;;;;0.95;0.93;;;22.10;81.30;;;;;;5008568;28;20073;-78
2021/08/20 11:18:45;;;;;;;2.35;1.05;;;22.20;80.80;;;;;;4995592;28;20101;-77
2021/08/20 11:21:45;;;;;;;1.10;1.00;;;22.30;80.30;;;;;;4995572;28;20502;-78
2021/08/20 11:24:17;;;;;;;0.82;0.82;;;22.30;80.20;;;;;;4995344;28;20034;-78
2021/08/20 11:26:44;;;;;;;1.52;0.80;;;22.30;80.40;;;;;;4995634;28;20042;-78
2021/08/20 11:29:11;;;;;;;1.75;0.93;;;22.30;80.30;;;;;;4995072;28;20051;-77
2021/08/20 11:31:37;;;;;;;1.25;0.93;;;22.20;80.30;;;;;;4994924;28;20057;-77
2021/08/20 11:34:04;;;;;;;1.00;0.90;;;22.30;80.50;;;;;;4995386;28;20467;-78
2021/08/20 11:36:30;;;;;;;0.80;0.80;;;22.40;80.30;;;;;;4992976;28;20085;-78
2021/08/20 11:38:57;;;;;;;1.65;1.17;;;22.50;79.80;;;;;;4992468;28;20419;-78
2021/08/20 11:41:35;;;;;;;1.20;1.10;;;22.70;79.60;;;;;;4994831;28;20117;-78
2021/08/20 11:44:03;;;;;;;0.93;0.90;;;22.80;79.10;;;;;;4953684;28;20050;-78
2021/08/20 11:46:39;;;;;;;1.50;0.82;;;22.90;79.10;;;;;;4992097;28;20073;-77
2021/08/20 11:49:07;;;;;;;1.30;1.00;;;22.90;78.90;;;;;;4994985;28;20046;-78
2021/08/20 11:51:36;;;;;;;1.33;1.20;;;22.80;78.90;;;;;;4994983;28;20178;-78
2021/08/20 11:54:06;;;;;;;1.10;1.00;;;22.80;79.10;;;;;;4994599;28;20101;-78
2021/08/20 11:56:32;;;;;;;1.38;1.00;;;22.70;79.20;;;;;;4994683;28;20031;-78
2021/08/20 11:59:08;;;;;;;1.33;1.05;;;22.80;79.20;;;;;;4991632;28;20072;-78
2021/08/20 12:01:37;;;;;;;1.23;1.10;;;22.90;78.90;;;;;;4992315;28;20437;-78
2021/08/20 12:04:03;;;;;;;1.40;1.20;;;23.00;78.50;;;;;;4994498;28;20042;-78
2021/08/20 12:06:29;;;;;;;1.27;1.15;;;23.10;78.20;;;;;;5007686;28;20045;-78
2021/08/20 12:08:57;;;;;;;1.25;1.15;;;23.30;77.90;;;;;;4994881;28;20466;-77
2021/08/20 12:11:29;;;;;;;1.67;1.33;;;23.40;77.70;;;;;;5008516;28;20095;-78
2021/08/20 12:13:56;;;;;;;2.60;1.50;;;23.40;77.50;;;;;;4993196;28;20038;-77
2021/08/20 12:16:34;;;;;;;1.63;1.30;;;23.40;77.50;;;;;;4993338;28;20041;-77
2021/08/20 12:19:13;;;;;;;1.80;1.45;;;23.30;77.60;;;;;;4993408;28;20037;-78
2021/08/20 12:21:44;;;;;;;2.05;1.35;;;23.30;77.70;;;;;;4994339;28;20046;-78
2021/08/20 12:24:10;;;;;;;2.83;1.30;;;23.30;77.60;;;;;;5008829;28;20080;-78
2021/08/20 12:26:35;;;;;;;2.17;1.35;;;23.20;77.70;;;;;;4994158;28;20080;-78
2021/08/20 12:29:16;;;;;;;1.77;1.52;;;23.20;78.10;;;;;;4991424;28;20398;-78
2021/08/20 12:31:54;;;;;;;1.98;1.50;;;23.10;78.00;;;;;;4994210;28;20039;-78
2021/08/20 12:34:34;;;;;;;1.90;1.48;;;23.10;78.10;;;;;;4992000;28;20073;-78
2021/08/20 12:37:02;;;;;;;1.98;1.50;;;23.00;78.30;;;;;;4994176;28;20039;-78
2021/08/20 12:39:37;;;;;;;1.90;1.50;;;22.90;78.50;;;;;;4994289;28;20517;-78
2021/08/20 12:42:18;;;;;;;2.35;1.60;;;22.90;78.60;;;;;;4993979;28;20052;-78
2021/08/20 12:44:44;;;;;;;;;;;22.80;78.70;;;;;;4994739;28;20037;-78
2021/08/20 12:47:10;;;;;;;1.70;1.40;;;22.80;79.00;;;;;;4976175;28;19909;-79
2021/08/20 12:50:00;;;;;;;2.03;1.30;;;22.70;79.30;;;;;;4994398;28;20043;-78
2021/08/20 12:52:27;;;;;;;2.42;1.73;;;22.80;79.00;;;;;;4993743;28;20089;-79